sensor_id;sensor_type;location;lat;lon;timestamp;pressure;altitude;pressure_sealevel;temperature;humidity
76592;BME280;65481;47.600;19.682;2023-05-23T00:03:54;99979.88;;;15.66;100.00
76592;BME280;65481;47.600;19.682;2023-05-23T00:08:55;99982.03;;;15.49;100.00
76592;BME280;65481;47.600;19.682;2023-05-23T00:13:56;99986.28;;;15.39;100.00
76592;BME280;65481;47.600;19.682;2023-05-23T00:19:00;99982.53;;;15.25;100.00
76592;BME280;65481;47.600;19.682;2023-05-23T00:24:00;99969.81;;;15.17;100.00
76592;BME280;65481;47.600;19.682;2023-05-23T00:29:05;99976.44;;;15.14;100.00
76592;BME280;65481;47.600;19.682;2023-05-23T00:34:05;99987.59;;;15.11;100.00
76592;BME280;65481;47.600;19.682;2023-05-23T00:39:06;99986.81;;;15.05;100.00
76592;BME280;65481;47.600;19.682;2023-05-23T00:44:07;99995.56;;;15.06;100.00
76592;BME280;65481;47.600;19.682;2023-05-23T00:49:09;99985.72;;;15.11;100.00
76592;BME280;65481;47.600;19.682;2023-05-23T00:54:10;99982.28;;;15.21;100.00
76592;BME280;65481;47.600;19.682;2023-05-23T00:59:11;99983.91;;;15.27;100.00
76592;BME280;65481;47.600;19.682;2023-05-23T01:04:13;99981.50;;;15.21;100.00
76592;BME280;65481;47.600;19.682;2023-05-23T01:09:17;99987.06;;;15.09;100.00
76592;BME280;65481;47.600;19.682;2023-05-23T01:14:22;99983.88;;;15.12;100.00
76592;BME280;65481;47.600;19.682;2023-05-23T01:24:36;99983.63;;;15.29;100.00
76592;BME280;65481;47.600;19.682;2023-05-23T01:29:45;99986.28;;;15.19;100.00
76592;BME280;65481;47.600;19.682;2023-05-23T01:34:48;99984.94;;;15.16;100.00
76592;BME280;65481;47.600;19.682;2023-05-23T01:39:51;99983.59;;;15.08;100.00
76592;BME280;65481;47.600;19.682;2023-05-23T01:44:52;99979.34;;;15.02;100.00
76592;BME280;65481;47.600;19.682;2023-05-23T01:49:53;99979.59;;;15.01;100.00
76592;BME280;65481;47.600;19.682;2023-05-23T01:54:55;99980.91;;;14.93;100.00
76592;BME280;65481;47.600;19.682;2023-05-23T01:59:56;99980.63;;;14.79;100.00
76592;BME280;65481;47.600;19.682;2023-05-23T02:04:57;99974.78;;;14.77;100.00
76592;BME280;65481;47.600;19.682;2023-05-23T02:09:57;99968.13;;;14.74;100.00
76592;BME280;65481;47.600;19.682;2023-05-23T02:14:58;99975.59;;;14.82;100.00
76592;BME280;65481;47.600;19.682;2023-05-23T02:19:58;99975.59;;;14.82;100.00
76592;BME280;65481;47.600;19.682;2023-05-23T02:24:59;99967.63;;;14.93;100.00
76592;BME280;65481;47.600;19.682;2023-05-23T02:29:59;99963.38;;;14.92;100.00
76592;BME280;65481;47.600;19.682;2023-05-23T02:35:00;99965.47;;;14.74;100.00
76592;BME280;65481;47.600;19.682;2023-05-23T02:40:01;99964.84;;;14.57;100.00
76592;BME280;65481;47.600;19.682;2023-05-23T02:45:02;99962.16;;;14.41;100.00
76592;BME280;65481;47.600;19.682;2023-05-23T02:50:03;99958.44;;;14.42;100.00
76592;BME280;65481;47.600;19.682;2023-05-23T02:55:05;99963.72;;;14.32;100.00
76592;BME280;65481;47.600;19.682;2023-05-23T03:00:05;99967.97;;;14.33;100.00
76592;BME280;65481;47.600;19.682;2023-05-23T03:05:26;99962.41;;;14.34;100.00
76592;BME280;65481;47.600;19.682;2023-05-23T03:10:27;99960.03;;;14.43;100.00
76592;BME280;65481;47.600;19.682;2023-05-23T03:15:27;99955.28;;;14.45;100.00
76592;BME280;65481;47.600;19.682;2023-05-23T03:20:28;99952.38;;;14.52;100.00
76592;BME280;65481;47.600;19.682;2023-05-23T03:25:29;99963.00;;;14.57;100.00
76592;BME280;65481;47.600;19.682;2023-05-23T03:30:29;99960.59;;;14.56;100.00
76592;BME280;65481;47.600;19.682;2023-05-23T03:35:30;99956.88;;;14.57;100.00
76592;BME280;65481;47.600;19.682;2023-05-23T03:40:30;99951.34;;;14.58;100.00
76592;BME280;65481;47.600;19.682;2023-05-23T03:45:31;99954.00;;;14.63;100.00
76592;BME280;65481;47.600;19.682;2023-05-23T03:50:32;99953.00;;;14.75;100.00
76592;BME280;65481;47.600;19.682;2023-05-23T03:55:32;99955.41;;;14.81;100.00
76592;BME280;65481;47.600;19.682;2023-05-23T04:00:33;99944.25;;;14.95;100.00
76592;BME280;65481;47.600;19.682;2023-05-23T04:05:33;99957.28;;;15.02;100.00
76592;BME280;65481;47.600;19.682;2023-05-23T04:10:34;99963.91;;;14.94;100.00
76592;BME280;65481;47.600;19.682;2023-05-23T04:15:34;99968.97;;;15.01;100.00
76592;BME280;65481;47.600;19.682;2023-05-23T04:20:35;99976.97;;;15.11;100.00
76592;BME280;65481;47.600;19.682;2023-05-23T04:25:35;99976.19;;;15.31;100.00
76592;BME280;65481;47.600;19.682;2023-05-23T04:30:37;99971.41;;;15.54;100.00
76592;BME280;65481;47.600;19.682;2023-05-23T04:35:37;99968.72;;;15.74;100.00
76592;BME280;65481;47.600;19.682;2023-05-23T04:40:41;99955.66;;;16.04;100.00
76592;BME280;65481;47.600;19.682;2023-05-23T04:45:41;99960.34;;;16.33;100.00
76592;BME280;65481;47.600;19.682;2023-05-23T04:50:43;99956.75;;;16.58;100.00
76592;BME280;65481;47.600;19.682;2023-05-23T04:55:46;99955.53;;;16.85;100.00
76592;BME280;65481;47.600;19.682;2023-05-23T05:00:48;99957.50;;;17.14;100.00
76592;BME280;65481;47.600;19.682;2023-05-23T05:05:48;99959.66;;;17.47;98.74
76592;BME280;65481;47.600;19.682;2023-05-23T05:10:48;99956.81;;;17.92;96.46
76592;BME280;65481;47.600;19.682;2023-05-23T05:15:49;99950.88;;;18.43;93.71
76592;BME280;65481;47.600;19.682;2023-05-23T05:20:52;99949.75;;;19.07;89.66
76592;BME280;65481;47.600;19.682;2023-05-23T05:25:53;99950.78;;;19.58;85.47
76592;BME280;65481;47.600;19.682;2023-05-23T05:30:53;99952.38;;;20.43;79.10
76592;BME280;65481;47.600;19.682;2023-05-23T05:35:54;99958.28;;;21.27;72.86
76592;BME280;65481;47.600;19.682;2023-05-23T05:40:54;99945.53;;;21.96;68.17
76592;BME280;65481;47.600;19.682;2023-05-23T05:45:55;99945.81;;;22.52;63.71
76592;BME280;65481;47.600;19.682;2023-05-23T05:50:56;99951.03;;;23.10;61.38
76592;BME280;65481;47.600;19.682;2023-05-23T05:56:01;99954.63;;;23.41;56.33
76592;BME280;65481;47.600;19.682;2023-05-23T06:01:02;99953.56;;;23.72;52.71
76592;BME280;65481;47.600;19.682;2023-05-23T06:06:05;99952.53;;;23.55;51.04
76592;BME280;65481;47.600;19.682;2023-05-23T06:11:06;99952.50;;;23.94;50.25
76592;BME280;65481;47.600;19.682;2023-05-23T06:16:06;99952.16;;;24.34;48.45
76592;BME280;65481;47.600;19.682;2023-05-23T06:21:08;99952.06;;;25.07;46.30
76592;BME280;65481;47.600;19.682;2023-05-23T06:26:08;99952.03;;;25.40;45.91
76592;BME280;65481;47.600;19.682;2023-05-23T06:31:09;99963.81;;;25.94;44.51
76592;BME280;65481;47.600;19.682;2023-05-23T06:36:10;99962.13;;;26.02;44.15
76592;BME280;65481;47.600;19.682;2023-05-23T06:41:11;99956.38;;;26.28;44.09
76592;BME280;65481;47.600;19.682;2023-05-23T06:46:11;99956.22;;;26.78;42.76
76592;BME280;65481;47.600;19.682;2023-05-23T06:51:12;99954.38;;;27.39;41.15
76592;BME280;65481;47.600;19.682;2023-05-23T06:56:12;99945.38;;;27.83;38.62
76592;BME280;65481;47.600;19.682;2023-05-23T07:01:13;99957.09;;;27.71;37.94
76592;BME280;65481;47.600;19.682;2023-05-23T07:06:13;99940.31;;;27.81;38.21
76592;BME280;65481;47.600;19.682;2023-05-23T07:11:14;99939.50;;;27.97;37.12
76592;BME280;65481;47.600;19.682;2023-05-23T07:16:14;99940.69;;;28.16;35.96
76592;BME280;65481;47.600;19.682;2023-05-23T07:21:15;99938.00;;;28.94;34.66
76592;BME280;65481;47.600;19.682;2023-05-23T07:26:16;99942.22;;;28.92;34.19
76592;BME280;65481;47.600;19.682;2023-05-23T07:31:16;99936.03;;;28.91;34.65
76592;BME280;65481;47.600;19.682;2023-05-23T07:36:18;99931.38;;;28.92;34.48
76592;BME280;65481;47.600;19.682;2023-05-23T07:41:19;99929.66;;;29.26;34.13
76592;BME280;65481;47.600;19.682;2023-05-23T07:46:19;99927.78;;;29.54;33.93
76592;BME280;65481;47.600;19.682;2023-05-23T07:51:22;99931.88;;;29.94;33.66
76592;BME280;65481;47.600;19.682;2023-05-23T07:56:22;99927.72;;;30.31;32.81
76592;BME280;65481;47.600;19.682;2023-05-23T08:01:23;99934.66;;;30.93;32.69
76592;BME280;65481;47.600;19.682;2023-05-23T08:06:25;99924.78;;;31.19;32.12
76592;BME280;65481;47.600;19.682;2023-05-23T08:11:25;99924.13;;;31.29;31.97
76592;BME280;65481;47.600;19.682;2023-05-23T08:16:28;99916.28;;;31.24;32.34
76592;BME280;65481;47.600;19.682;2023-05-23T08:21:28;99930.63;;;30.79;32.17
76592;BME280;65481;47.600;19.682;2023-05-23T08:26:29;99922.19;;;31.33;32.84
76592;BME280;65481;47.600;19.682;2023-05-23T08:31:33;99918.34;;;31.41;31.55
76592;BME280;65481;47.600;19.682;2023-05-23T08:36:34;99923.91;;;31.52;31.51
76592;BME280;65481;47.600;19.682;2023-05-23T08:41:35;99928.09;;;31.39;32.28
76592;BME280;65481;47.600;19.682;2023-05-23T08:46:43;99924.50;;;31.87;30.75
76592;BME280;65481;47.600;19.682;2023-05-23T08:51:45;99920.50;;;32.40;31.32
76592;BME280;65481;47.600;19.682;2023-05-23T08:56:47;99919.63;;;32.22;31.05
76592;BME280;65481;47.600;19.682;2023-05-23T09:01:48;99921.28;;;32.37;31.98
76592;BME280;65481;47.600;19.682;2023-05-23T09:06:51;99912.47;;;32.84;30.84
76592;BME280;65481;47.600;19.682;2023-05-23T09:11:54;99920.25;;;32.85;30.21
76592;BME280;65481;47.600;19.682;2023-05-23T09:16:59;99908.97;;;33.23;29.89
76592;BME280;65481;47.600;19.682;2023-05-23T09:22:01;99907.78;;;33.35;29.42
76592;BME280;65481;47.600;19.682;2023-05-23T09:27:04;99920.69;;;33.13;30.01
76592;BME280;65481;47.600;19.682;2023-05-23T09:32:10;99910.94;;;33.30;30.57
76592;BME280;65481;47.600;19.682;2023-05-23T09:37:11;99905.84;;;33.43;30.21
76592;BME280;65481;47.600;19.682;2023-05-23T09:42:21;99897.22;;;33.62;31.38
76592;BME280;65481;47.600;19.682;2023-05-23T09:47:22;99894.16;;;33.42;30.69
76592;BME280;65481;47.600;19.682;2023-05-23T09:52:22;99892.19;;;33.35;30.86
76592;BME280;65481;47.600;19.682;2023-05-23T09:57:23;99895.69;;;33.18;30.46
76592;BME280;65481;47.600;19.682;2023-05-23T10:07:58;99886.22;;;34.02;30.21
76592;BME280;65481;47.600;19.682;2023-05-23T10:13:04;99877.31;;;33.65;30.69
76592;BME280;65481;47.600;19.682;2023-05-23T10:18:12;99874.88;;;34.00;30.65
76592;BME280;65481;47.600;19.682;2023-05-23T10:23:16;99871.22;;;34.25;30.11
76592;BME280;65481;47.600;19.682;2023-05-23T10:28:18;99865.16;;;34.66;28.76
76592;BME280;65481;47.600;19.682;2023-05-23T10:33:19;99862.97;;;34.39;30.33
76592;BME280;65481;47.600;19.682;2023-05-23T10:38:48;99858.34;;;32.05;32.74
76592;BME280;65481;47.600;19.682;2023-05-23T10:44:09;99861.91;;;30.97;33.87
76592;BME280;65481;47.600;19.682;2023-05-23T10:49:11;99846.53;;;32.92;30.58
76592;BME280;65481;47.600;19.682;2023-05-23T10:54:11;99843.75;;;31.68;31.31
76592;BME280;65481;47.600;19.682;2023-05-23T10:59:30;99840.22;;;32.77;30.91
76592;BME280;65481;47.600;19.682;2023-05-23T11:04:31;99834.00;;;33.39;30.20
76592;BME280;65481;47.600;19.682;2023-05-23T11:09:31;99823.72;;;33.82;29.22
76592;BME280;65481;47.600;19.682;2023-05-23T11:14:33;99821.47;;;33.59;29.95
76592;BME280;65481;47.600;19.682;2023-05-23T11:19:34;99816.63;;;33.89;28.99
76592;BME280;65481;47.600;19.682;2023-05-23T11:24:51;99810.19;;;33.32;29.90
76592;BME280;65481;47.600;19.682;2023-05-23T11:30:05;99809.06;;;33.00;30.36
76592;BME280;65481;47.600;19.682;2023-05-23T11:35:08;99796.56;;;32.85;29.36
76592;BME280;65481;47.600;19.682;2023-05-23T11:40:40;99789.53;;;32.95;28.84
76592;BME280;65481;47.600;19.682;2023-05-23T11:45:41;99788.34;;;33.10;29.87
76592;BME280;65481;47.600;19.682;2023-05-23T11:50:50;99772.69;;;33.43;28.37
76592;BME280;65481;47.600;19.682;2023-05-23T11:55:53;99775.00;;;33.45;28.04
76592;BME280;65481;47.600;19.682;2023-05-23T12:01:07;99753.78;;;33.81;27.32
76592;BME280;65481;47.600;19.682;2023-05-23T12:06:08;99744.75;;;33.81;28.27
76592;BME280;65481;47.600;19.682;2023-05-23T12:11:09;99742.69;;;33.03;29.64
76592;BME280;65481;47.600;19.682;2023-05-23T12:16:12;99727.88;;;32.72;28.66
76592;BME280;65481;47.600;19.682;2023-05-23T12:21:14;99731.34;;;33.16;29.04
76592;BME280;65481;47.600;19.682;2023-05-23T12:26:15;99727.84;;;33.08;30.68
76592;BME280;65481;47.600;19.682;2023-05-23T12:31:17;99721.59;;;33.04;30.74
76592;BME280;65481;47.600;19.682;2023-05-23T12:36:24;99713.00;;;32.18;30.45
76592;BME280;65481;47.600;19.682;2023-05-23T12:41:25;99710.72;;;32.82;30.48
76592;BME280;65481;47.600;19.682;2023-05-23T12:46:26;99705.19;;;33.15;30.49
76592;BME280;65481;47.600;19.682;2023-05-23T12:51:27;99703.28;;;32.94;29.36
76592;BME280;65481;47.600;19.682;2023-05-23T12:56:27;99688.75;;;33.18;29.39
76592;BME280;65481;47.600;19.682;2023-05-23T13:01:27;99688.06;;;32.92;29.32
76592;BME280;65481;47.600;19.682;2023-05-23T13:06:28;99681.00;;;33.06;29.39
76592;BME280;65481;47.600;19.682;2023-05-23T13:11:28;99681.38;;;33.12;31.24
76592;BME280;65481;47.600;19.682;2023-05-23T13:16:30;99677.88;;;33.07;30.85
76592;BME280;65481;47.600;19.682;2023-05-23T13:21:31;99667.03;;;32.86;29.86
76592;BME280;65481;47.600;19.682;2023-05-23T13:26:32;99673.47;;;31.44;31.87
76592;BME280;65481;47.600;19.682;2023-05-23T13:31:33;99656.06;;;30.96;34.23
76592;BME280;65481;47.600;19.682;2023-05-23T13:36:34;99657.22;;;31.87;31.13
76592;BME280;65481;47.600;19.682;2023-05-23T13:41:35;99658.44;;;32.44;30.13
76592;BME280;65481;47.600;19.682;2023-05-23T13:46:35;99660.78;;;32.16;31.67
76592;BME280;65481;47.600;19.682;2023-05-23T13:51:36;99661.16;;;32.18;30.96
76592;BME280;65481;47.600;19.682;2023-05-23T13:56:36;99651.44;;;32.21;31.13
76592;BME280;65481;47.600;19.682;2023-05-23T14:01:38;99663.91;;;32.15;31.45
76592;BME280;65481;47.600;19.682;2023-05-23T14:06:40;99662.50;;;30.62;33.61
76592;BME280;65481;47.600;19.682;2023-05-23T14:11:40;99645.44;;;30.20;35.05
76592;BME280;65481;47.600;19.682;2023-05-23T14:16:40;99650.44;;;30.15;35.18
76592;BME280;65481;47.600;19.682;2023-05-23T14:21:41;99651.00;;;29.56;36.05
76592;BME280;65481;47.600;19.682;2023-05-23T14:26:42;99650.88;;;29.14;37.50
76592;BME280;65481;47.600;19.682;2023-05-23T14:31:42;99646.97;;;29.12;38.12
76592;BME280;65481;47.600;19.682;2023-05-23T14:36:43;99651.00;;;29.25;38.36
76592;BME280;65481;47.600;19.682;2023-05-23T14:41:43;99639.81;;;29.30;38.25
76592;BME280;65481;47.600;19.682;2023-05-23T14:46:45;99635.63;;;29.37;37.88
76592;BME280;65481;47.600;19.682;2023-05-23T14:51:48;99638.97;;;28.96;40.43
76592;BME280;65481;47.600;19.682;2023-05-23T14:56:49;99633.97;;;28.98;38.76
76592;BME280;65481;47.600;19.682;2023-05-23T15:01:50;99629.28;;;29.25;36.40
76592;BME280;65481;47.600;19.682;2023-05-23T15:06:51;99643.16;;;29.47;35.13
76592;BME280;65481;47.600;19.682;2023-05-23T15:11:51;99640.34;;;29.13;36.78
76592;BME280;65481;47.600;19.682;2023-05-23T15:16:52;99641.91;;;29.14;36.20
76592;BME280;65481;47.600;19.682;2023-05-23T15:21:52;99642.03;;;29.52;36.64
76592;BME280;65481;47.600;19.682;2023-05-23T15:26:53;99647.91;;;29.57;36.32
76592;BME280;65481;47.600;19.682;2023-05-23T15:31:53;99652.50;;;29.53;37.21
76592;BME280;65481;47.600;19.682;2023-05-23T15:36:54;99643.53;;;28.88;36.47
76592;BME280;65481;47.600;19.682;2023-05-23T15:41:55;99643.50;;;28.11;36.73
76592;BME280;65481;47.600;19.682;2023-05-23T15:46:56;99632.97;;;27.66;37.17
76592;BME280;65481;47.600;19.682;2023-05-23T15:51:56;99636.69;;;27.39;36.36
76592;BME280;65481;47.600;19.682;2023-05-23T15:56:57;99644.25;;;26.78;36.69
76592;BME280;65481;47.600;19.682;2023-05-23T16:01:57;99645.22;;;26.21;37.02
76592;BME280;65481;47.600;19.682;2023-05-23T16:06:58;99657.16;;;25.76;37.26
76592;BME280;65481;47.600;19.682;2023-05-23T16:11:58;99665.97;;;25.19;37.60
76592;BME280;65481;47.600;19.682;2023-05-23T16:16:59;99665.31;;;24.85;38.97
76592;BME280;65481;47.600;19.682;2023-05-23T16:22:05;99647.88;;;24.45;39.89
76592;BME280;65481;47.600;19.682;2023-05-23T16:27:05;99626.66;;;24.56;39.99
76592;BME280;65481;47.600;19.682;2023-05-23T16:32:06;99634.63;;;24.53;40.43
76592;BME280;65481;47.600;19.682;2023-05-23T16:37:06;99636.88;;;24.50;40.33
76592;BME280;65481;47.600;19.682;2023-05-23T16:42:07;99646.75;;;24.59;40.97
76592;BME280;65481;47.600;19.682;2023-05-23T16:47:07;99643.03;;;24.51;40.03
76592;BME280;65481;47.600;19.682;2023-05-23T16:52:08;99626.09;;;24.50;39.34
76592;BME280;65481;47.600;19.682;2023-05-23T16:57:09;99638.00;;;24.49;40.22
76592;BME280;65481;47.600;19.682;2023-05-23T17:02:12;99650.44;;;24.29;40.35
76592;BME280;65481;47.600;19.682;2023-05-23T17:07:14;99669.31;;;23.96;40.77
76592;BME280;65481;47.600;19.682;2023-05-23T17:12:14;99658.97;;;23.64;41.52
76592;BME280;65481;47.600;19.682;2023-05-23T17:17:14;99668.75;;;23.48;42.11
76592;BME280;65481;47.600;19.682;2023-05-23T17:22:15;99667.72;;;23.40;42.15
76592;BME280;65481;47.600;19.682;2023-05-23T17:27:16;99681.03;;;23.36;43.47
76592;BME280;65481;47.600;19.682;2023-05-23T17:32:16;99696.41;;;23.06;46.31
76592;BME280;65481;47.600;19.682;2023-05-23T17:37:19;99675.91;;;22.83;49.61
76592;BME280;65481;47.600;19.682;2023-05-23T17:42:19;99684.69;;;22.72;51.32
76592;BME280;65481;47.600;19.682;2023-05-23T17:47:20;99713.19;;;22.64;52.67
76592;BME280;65481;47.600;19.682;2023-05-23T17:52:21;99752.22;;;22.70;52.35
76592;BME280;65481;47.600;19.682;2023-05-23T17:57:21;99759.69;;;22.56;56.38
76592;BME280;65481;47.600;19.682;2023-05-23T18:02:22;99878.28;;;22.36;58.24
76592;BME280;65481;47.600;19.682;2023-05-23T18:07:22;99874.00;;;22.09;60.27
76592;BME280;65481;47.600;19.682;2023-05-23T18:12:23;99886.59;;;21.91;61.74
76592;BME280;65481;47.600;19.682;2023-05-23T18:17:23;99900.63;;;21.56;66.02
76592;BME280;65481;47.600;19.682;2023-05-23T18:22:24;99908.78;;;21.33;69.11
76592;BME280;65481;47.600;19.682;2023-05-23T18:27:24;99912.34;;;21.29;70.24
76592;BME280;65481;47.600;19.682;2023-05-23T18:32:25;99933.53;;;21.30;72.02
76592;BME280;65481;47.600;19.682;2023-05-23T18:37:26;99951.81;;;21.06;74.53
76592;BME280;65481;47.600;19.682;2023-05-23T18:42:26;99966.38;;;20.54;78.21
76592;BME280;65481;47.600;19.682;2023-05-23T18:47:27;99976.34;;;20.25;81.34
76592;BME280;65481;47.600;19.682;2023-05-23T18:52:27;99991.81;;;20.15;83.24
76592;BME280;65481;47.600;19.682;2023-05-23T18:57:30;99994.47;;;20.01;84.80
76592;BME280;65481;47.600;19.682;2023-05-23T19:02:31;99991.28;;;19.85;86.86
76592;BME280;65481;47.600;19.682;2023-05-23T19:07:32;99987.69;;;19.61;90.75
76592;BME280;65481;47.600;19.682;2023-05-23T19:12:32;99993.06;;;19.42;97.13
76592;BME280;65481;47.600;19.682;2023-05-23T19:17:32;99982.66;;;19.41;99.47
76592;BME280;65481;47.600;19.682;2023-05-23T19:22:34;99990.97;;;19.39;100.00
76592;BME280;65481;47.600;19.682;2023-05-23T19:27:34;99988.97;;;19.31;100.00
76592;BME280;65481;47.600;19.682;2023-05-23T19:32:35;99979.34;;;19.30;100.00
76592;BME280;65481;47.600;19.682;2023-05-23T19:37:35;99966.25;;;19.28;100.00
76592;BME280;65481;47.600;19.682;2023-05-23T19:42:36;99950.22;;;19.28;100.00
76592;BME280;65481;47.600;19.682;2023-05-23T19:47:36;99948.88;;;19.45;100.00
76592;BME280;65481;47.600;19.682;2023-05-23T19:52:38;99924.19;;;19.48;100.00
76592;BME280;65481;47.600;19.682;2023-05-23T19:57:39;99917.25;;;19.47;100.00
76592;BME280;65481;47.600;19.682;2023-05-23T20:02:40;99927.25;;;19.41;100.00
76592;BME280;65481;47.600;19.682;2023-05-23T20:07:41;99910.44;;;19.41;100.00
76592;BME280;65481;47.600;19.682;2023-05-23T20:12:42;99896.44;;;19.30;100.00
76592;BME280;65481;47.600;19.682;2023-05-23T20:17:42;99882.06;;;19.26;100.00
76592;BME280;65481;47.600;19.682;2023-05-23T20:22:43;99876.78;;;19.20;100.00
76592;BME280;65481;47.600;19.682;2023-05-23T20:27:43;99865.41;;;19.15;100.00
76592;BME280;65481;47.600;19.682;2023-05-23T20:32:44;99849.81;;;19.03;100.00
76592;BME280;65481;47.600;19.682;2023-05-23T20:37:44;99825.63;;;18.94;100.00
76592;BME280;65481;47.600;19.682;2023-05-23T20:42:45;99827.88;;;18.87;100.00
76592;BME280;65481;47.600;19.682;2023-05-23T20:47:45;99803.72;;;18.78;100.00
76592;BME280;65481;47.600;19.682;2023-05-23T20:52:46;99823.97;;;18.65;100.00
76592;BME280;65481;47.600;19.682;2023-05-23T20:57:47;99845.91;;;18.62;100.00
76592;BME280;65481;47.600;19.682;2023-05-23T21:02:47;99858.84;;;18.55;100.00
76592;BME280;65481;47.600;19.682;2023-05-23T21:07:48;99855.69;;;18.53;100.00
76592;BME280;65481;47.600;19.682;2023-05-23T21:12:48;99868.22;;;18.52;100.00
76592;BME280;65481;47.600;19.682;2023-05-23T21:17:49;99871.03;;;18.61;100.00
76592;BME280;65481;47.600;19.682;2023-05-23T21:22:50;99865.06;;;18.69;100.00
76592;BME280;65481;47.600;19.682;2023-05-23T21:27:51;99863.97;;;18.70;100.00
76592;BME280;65481;47.600;19.682;2023-05-23T21:32:51;99855.34;;;18.73;100.00
76592;BME280;65481;47.600;19.682;2023-05-23T21:37:52;99860.41;;;18.75;100.00
76592;BME280;65481;47.600;19.682;2023-05-23T21:42:52;99889.09;;;18.69;100.00
76592;BME280;65481;47.600;19.682;2023-05-23T21:47:55;99888.38;;;18.44;100.00
76592;BME280;65481;47.600;19.682;2023-05-23T21:52:55;99891.69;;;18.36;100.00
76592;BME280;65481;47.600;19.682;2023-05-23T21:57:56;99879.56;;;18.25;100.00
76592;BME280;65481;47.600;19.682;2023-05-23T22:02:56;99904.56;;;18.10;100.00
76592;BME280;65481;47.600;19.682;2023-05-23T22:07:57;99904.34;;;18.06;100.00
76592;BME280;65481;47.600;19.682;2023-05-23T22:12:57;99931.16;;;17.96;100.00
76592;BME280;65481;47.600;19.682;2023-05-23T22:17:58;99935.38;;;18.02;100.00
76592;BME280;65481;47.600;19.682;2023-05-23T22:22:59;99932.28;;;18.14;100.00
76592;BME280;65481;47.600;19.682;2023-05-23T22:28:01;99935.94;;;18.23;100.00
76592;BME280;65481;47.600;19.682;2023-05-23T22:33:01;99945.25;;;18.26;100.00
76592;BME280;65481;47.600;19.682;2023-05-23T22:38:02;99953.97;;;18.31;100.00
76592;BME280;65481;47.600;19.682;2023-05-23T22:43:03;99963.56;;;18.33;100.00
76592;BME280;65481;47.600;19.682;2023-05-23T22:48:05;99954.84;;;18.27;100.00
76592;BME280;65481;47.600;19.682;2023-05-23T22:53:07;99960.75;;;18.24;100.00
76592;BME280;65481;47.600;19.682;2023-05-23T22:58:08;99958.63;;;18.21;100.00
76592;BME280;65481;47.600;19.682;2023-05-23T23:03:08;99955.25;;;18.15;100.00
76592;BME280;65481;47.600;19.682;2023-05-23T23:08:09;99957.41;;;18.13;100.00
76592;BME280;65481;47.600;19.682;2023-05-23T23:13:09;99959.28;;;18.12;100.00
76592;BME280;65481;47.600;19.682;2023-05-23T23:18:12;99950.75;;;18.10;100.00
76592;BME280;65481;47.600;19.682;2023-05-23T23:23:13;99954.47;;;18.14;100.00
76592;BME280;65481;47.600;19.682;2023-05-23T23:28:17;99955.75;;;18.17;100.00
76592;BME280;65481;47.600;19.682;2023-05-23T23:33:18;99955.97;;;18.21;100.00
76592;BME280;65481;47.600;19.682;2023-05-23T23:38:18;99955.53;;;18.13;100.00
76592;BME280;65481;47.600;19.682;2023-05-23T23:43:19;99962.53;;;18.09;100.00
76592;BME280;65481;47.600;19.682;2023-05-23T23:48:20;99954.56;;;18.04;100.00
76592;BME280;65481;47.600;19.682;2023-05-23T23:53:20;99962.31;;;18.06;100.00
76592;BME280;65481;47.600;19.682;2023-05-23T23:58:21;99968.22;;;18.03;100.00
